Time;durP1;ratioP1;P1;durP2;ratioP2;P2;SDS_P1;SDS_P2;PMS_P1;PMS_P2;Temp;Humidity;BMP_temperature;BMP_pressure;BME280_temperature;BME280_humidity;BME280_pressure;Samples;Min_cycle;Max_cycle;Signal;HPM_P1;HPM_P2
2022/06/21 00:01:18;;;;;;;;;9.20;8.60;;;;;18.26;100.00;101003.16;6212410;22;45350;-83
2022/06/21 00:03:45;;;;;;;;;14.40;11.60;;;;;18.24;100.00;100995.22;6214114;22;45366;-83
2022/06/21 00:06:18;;;;;;;;;12.00;12.00;;;;;18.20;100.00;100983.06;6215126;22;44986;-83
2022/06/21 00:08:44;;;;;;;;;12.20;11.60;;;;;18.21;100.00;100985.59;6214982;22;45346;-83
2022/06/21 00:11:28;;;;;;;;;12.75;10.50;;;;;18.19;100.00;100978.69;6215995;22;44688;-80
2022/06/21 00:13:54;;;;;;;;;9.20;7.80;;;;;18.18;100.00;100974.28;6217535;22;45353;-82
2022/06/21 00:16:22;;;;;;;;;9.00;6.50;;;;;18.18;100.00;100968.91;6217850;22;45307;-83
2022/06/21 00:18:48;;;;;;;;;8.50;6.50;;;;;18.18;100.00;100963.53;6218845;22;45247;-83
2022/06/21 00:21:36;;;;;;;;;5.80;5.60;;;;;18.14;100.00;100957.59;6221069;22;45384;-82
2022/06/21 00:24:01;;;;;;;;;9.80;9.80;;;;;18.10;100.00;100958.91;6215345;22;44762;-83
2022/06/21 00:26:28;;;;;;;;;10.00;10.00;;;;;18.12;100.00;100964.97;6237019;22;45236;-83
2022/06/21 00:28:54;;;;;;;;;9.20;8.00;;;;;18.09;100.00;100967.13;6218462;22;45324;-84
2022/06/21 00:31:22;;;;;;;;;9.50;8.50;;;;;18.00;100.00;100955.38;6219403;22;44813;-82
2022/06/21 00:33:48;;;;;;;;;13.20;11.60;;;;;18.00;100.00;100973.34;6219086;22;45321;-83
2022/06/21 00:36:24;;;;;;;;;10.75;10.75;;;;;17.96;100.00;100967.41;6216884;22;45146;-83
2022/06/21 00:38:52;;;;;;;;;12.50;10.25;;;;;17.92;100.00;100974.91;6213691;22;45087;-83
2022/06/21 00:41:37;;;;;;;;;10.20;10.20;;;;;17.91;100.00;100969.69;6213738;22;44812;-84
2022/06/21 00:44:06;;;;;;;;;14.00;9.60;;;;;17.92;100.00;100968.69;6216116;22;45234;-83
2022/06/21 00:46:40;;;;;;;;;9.25;9.25;;;;;17.90;100.00;100966.16;6213036;22;45432;-82
2022/06/21 00:49:18;;;;;;;;;13.25;11.50;;;;;17.86;100.00;100956.69;6217533;22;45218;-81
2022/06/21 00:51:44;;;;;;;;;8.80;8.00;;;;;17.83;100.00;100964.19;6212322;22;45260;-81
2022/06/21 00:54:21;;;;;;;;;14.25;13.75;;;;;17.85;100.00;100964.91;6212930;22;44686;-82
2022/06/21 00:57:04;;;;;;;;;12.75;12.00;;;;;17.78;100.00;100969.13;6217210;22;45257;-82
2022/06/21 00:59:33;;;;;;;;;16.75;13.00;;;;;17.79;100.00;100982.44;6219589;22;45330;-82
2022/06/21 01:02:06;;;;;;;;;15.20;12.60;;;;;17.78;100.00;100985.25;6213572;22;45278;-82
2022/06/21 01:04:42;;;;;;;;;18.60;15.60;;;;;17.69;100.00;100974.34;6213099;22;44876;-81
2022/06/21 01:07:10;;;;;;;;;18.25;15.25;;;;;17.70;100.00;100983.28;6211682;22;45236;-83
2022/06/21 01:09:48;;;;;;;;;13.40;12.20;;;;;17.73;100.00;100989.22;6214210;22;45286;-82
2022/06/21 01:12:26;;;;;;;;;16.80;16.80;;;;;17.71;100.00;100985.81;6214329;22;44663;-81
2022/06/21 01:15:08;;;;;;;;;14.20;13.20;;;;;17.67;100.00;100984.41;6218410;22;45191;-82
2022/06/21 01:17:35;;;;;;;;;15.50;14.75;;;;;17.66;100.00;100974.66;6219638;22;44872;-81
2022/06/21 01:20:10;;;;;;;;;13.50;13.50;;;;;17.64;100.00;100981.13;6219437;22;45120;-84
2022/06/21 01:22:36;;;;;;;;;16.50;15.75;;;;;17.58;100.00;100987.94;6212449;22;45258;-83
2022/06/21 01:25:30;;;;;;;;;17.00;14.75;;;;;17.59;100.00;100981.56;6212788;22;44774;-83
2022/06/21 01:27:56;;;;;;;;;16.50;16.50;;;;;17.61;100.00;100989.50;6212783;22;45309;-82
2022/06/21 01:30:23;;;;;;;;;15.50;14.75;;;;;17.59;100.00;100980.72;6235903;22;46894;-83
2022/06/21 01:32:50;;;;;;;;;16.20;14.60;;;;;17.56;100.00;100987.25;6213503;22;45187;-82
2022/06/21 01:35:28;;;;;;;;;22.25;17.50;;;;;17.54;100.00;100991.88;6214142;22;45333;-81
2022/06/21 01:37:55;;;;;;;;;15.25;14.75;;;;;17.54;100.00;100991.88;6218584;22;45508;-83
2022/06/21 01:40:26;;;;;;;;;13.50;13.50;;;;;17.59;100.00;101003.06;6214522;22;46868;-82
2022/06/21 01:42:57;;;;;;;;;12.80;12.00;;;;;17.62;100.00;101010.00;6214635;22;45171;-84
2022/06/21 01:45:35;;;;;;;;;17.50;14.50;;;;;17.67;100.00;101013.09;6213949;22;44696;-82
2022/06/21 01:48:04;;;;;;;;;17.25;14.25;;;;;17.68;100.00;101017.50;6209502;22;45270;-84
2022/06/21 01:50:33;;;;;;;;;17.25;14.50;;;;;17.71;100.00;101022.59;6212001;22;45503;-84
2022/06/21 01:52:59;;;;;;;;;15.25;13.75;;;;;17.77;100.00;101038.16;6216458;22;45395;-82
2022/06/21 01:55:34;;;;;;;;;13.75;13.75;;;;;17.84;100.00;101062.63;6217098;22;45041;-81
2022/06/21 01:58:04;;;;;;;;;14.25;12.00;;;;;17.87;100.00;101073.09;6216073;22;45199;-83
2022/06/21 02:00:32;;;;;;;;;13.50;13.50;;;;;17.87;100.00;101075.78;6213294;22;45934;-83
2022/06/21 02:03:07;;;;;;;;;16.00;16.00;;;;;17.93;100.00;101085.97;6212429;22;45313;-82
2022/06/21 02:05:45;;;;;;;;;14.75;14.75;;;;;17.95;100.00;101073.25;6213244;22;45237;-81
2022/06/21 02:08:14;;;;;;;;;15.00;14.25;;;;;17.97;100.00;101072.09;6213070;22;45226;-81
2022/06/21 02:10:51;;;;;;;;;15.00;12.50;;;;;18.00;100.00;101071.00;6216397;22;45269;-83
2022/06/21 02:13:23;;;;;;;;;13.20;12.60;;;;;18.01;100.00;101071.84;6210974;22;44692;-82
2022/06/21 02:15:59;;;;;;;;;15.75;13.50;;;;;18.01;100.00;101061.06;6216524;22;45573;-82
2022/06/21 02:18:29;;;;;;;;;13.25;13.25;;;;;17.97;100.00;101066.72;6222238;22;44761;-82
2022/06/21 02:21:01;;;;;;;;;14.00;14.00;;;;;17.95;100.00;101055.28;6216253;22;46402;-82
2022/06/21 02:23:27;;;;;;;;;12.40;12.40;;;;;17.90;100.00;101032.50;6236567;22;45586;-83
2022/06/21 02:25:54;;;;;;;;;21.25;13.75;;;;;17.84;100.00;101007.06;6212518;22;45342;-83
2022/06/21 02:28:21;;;;;;;;;12.50;12.50;;;;;17.85;100.00;101013.28;6212586;22;45374;-82
2022/06/21 02:30:48;;;;;;;;;14.00;13.50;;;;;17.82;100.00;101002.81;6212260;22;45492;-82
2022/06/21 02:33:20;;;;;;;;;7.40;6.60;;;;;17.82;100.00;100995.59;6212608;22;45286;-81
2022/06/21 02:35:54;;;;;;;;;15.75;14.25;;;;;17.77;100.00;101000.53;6213393;22;44765;-82
2022/06/21 02:38:25;;;;;;;;;15.00;13.75;;;;;17.69;100.00;100978.88;6214791;22;45384;-83
2022/06/21 02:40:58;;;;;;;;;14.00;14.00;;;;;17.67;100.00;100981.72;6209747;22;47243;-81
2022/06/21 02:43:30;;;;;;;;;14.40;13.60;;;;;17.64;100.00;100995.41;6216379;22;44774;-82
2022/06/21 02:46:08;;;;;;;;;13.20;11.20;;;;;17.59;100.00;100984.25;6215517;22;44697;-83
2022/06/21 02:48:40;;;;;;;;;12.50;12.50;;;;;17.57;100.00;100988.09;6219057;22;45197;-83
2022/06/21 02:51:11;;;;;;;;;14.25;14.25;;;;;17.56;100.00;100991.78;6233526;22;44964;-83
2022/06/21 02:53:42;;;;;;;;;18.00;13.40;;;;;17.55;100.00;100990.03;6222893;22;45199;-84
2022/06/21 02:56:16;;;;;;;;;14.80;13.20;;;;;17.51;100.00;100986.81;6220679;22;44576;-86
2022/06/21 02:58:51;;;;;;;;;14.75;14.75;;;;;17.50;100.00;100979.72;6218982;22;44877;-86
2022/06/21 03:01:34;;;;;;;;;14.00;14.00;;;;;17.45;100.00;100982.00;6211371;22;46562;-85
2022/06/21 03:04:00;;;;;;;;;16.20;14.20;;;;;17.39;100.00;100969.13;6218524;22;44752;-86
2022/06/21 03:06:28;;;;;;;;;11.50;11.25;;;;;17.31;100.00;100971.66;6218153;22;45242;-84
2022/06/21 03:09:00;;;;;;;;;16.50;15.25;;;;;17.25;100.00;100967.72;6216614;22;44806;-83
2022/06/21 03:11:28;;;;;;;;;15.25;15.25;;;;;17.14;100.00;100949.06;6214386;22;45337;-85
2022/06/21 03:13:55;;;;;;;;;13.25;11.50;;;;;17.13;100.00;100958.94;6212920;22;44681;-83
2022/06/21 03:16:22;;;;;;;;;16.00;13.75;;;;;17.13;100.00;100958.09;6219696;22;44634;-85
2022/06/21 03:18:54;;;;;;;;;15.75;13.50;;;;;17.12;100.00;100946.53;6221831;22;45377;-85
2022/06/21 03:21:32;;;;;;;;;13.25;13.25;;;;;17.11;100.00;100943.94;6218960;22;45096;-85
2022/06/21 03:23:59;;;;;;;;;9.60;8.00;;;;;17.05;100.00;100931.94;6214669;22;44779;-84
2022/06/21 03:26:28;;;;;;;;;15.00;13.25;;;;;17.01;100.00;100919.78;6213601;22;45409;-83
2022/06/21 03:28:54;;;;;;;;;18.00;15.50;;;;;16.96;100.00;100916.66;6214545;22;45109;-83
2022/06/21 03:31:35;;;;;;;;;17.00;17.00;;;;;16.88;100.00;100901.28;6222292;22;44995;-85
2022/06/21 03:34:08;;;;;;;;;17.00;17.00;;;;;16.82;100.00;100885.72;6221539;22;44713;-84
2022/06/21 03:36:33;;;;;;;;;16.75;16.25;;;;;16.77;100.00;100887.97;6219135;22;44762;-84
2022/06/21 03:39:07;;;;;;;;;19.00;15.00;;;;;16.78;100.00;100883.44;6217678;22;44901;-85
2022/06/21 03:41:42;;;;;;;;;15.75;14.50;;;;;16.74;100.00;100871.31;6212714;22;46584;-86
2022/06/21 03:44:23;;;;;;;;;13.50;13.50;;;;;16.63;100.00;100870.44;6214675;22;45379;-85
2022/06/21 03:47:02;;;;;;;;;18.00;16.50;;;;;16.59;100.00;100860.97;6212025;22;45185;-86
2022/06/21 03:49:57;;;;;;;;;16.00;14.50;;;;;16.52;100.00;100854.44;6216866;22;44729;-86
2022/06/21 03:52:43;;;;;;;;;15.75;15.75;;;;;16.48;100.00;100841.44;6212235;22;45392;-84
2022/06/21 03:55:27;;;;;;;;;15.50;14.00;;;;;16.40;100.00;100844.84;6236936;22;45365;-85
2022/06/21 03:58:06;;;;;;;;;15.25;15.00;;;;;16.31;100.00;100830.41;6239689;22;45163;-85
2022/06/21 04:00:57;;;;;;;;;14.50;13.50;;;;;16.33;100.00;100836.47;6217152;22;44853;-84
2022/06/21 04:03:37;;;;;;;;;22.50;20.75;;;;;16.25;100.00;100832.81;6238867;22;46281;-85
2022/06/21 04:06:17;;;;;;;;;16.75;15.00;;;;;16.13;100.00;100829.38;6214911;22;44666;-84
2022/06/21 04:09:00;;;;;;;;;19.50;15.75;;;;;16.13;100.00;100829.38;6224221;22;44682;-84
2022/06/21 04:11:39;;;;;;;;;17.25;15.75;;;;;16.06;100.00;100820.19;6249550;22;44885;-86
2022/06/21 04:14:16;;;;;;;;;24.50;19.25;;;;;16.01;100.00;100807.19;6226380;22;44900;-85
2022/06/21 04:16:49;;;;;;;;;17.25;16.25;;;;;16.00;100.00;100807.31;6219197;22;45431;-86
2022/06/21 04:19:33;;;;;;;;;19.50;15.50;;;;;15.96;100.00;100806.75;6219382;22;45285;-85
2022/06/21 04:22:03;;;;;;;;;20.25;16.75;;;;;15.93;100.00;100807.03;6239136;22;44854;-87
2022/06/21 04:24:54;;;;;;;;;25.00;19.25;;;;;15.92;100.00;100805.34;6239758;22;46450;-86
2022/06/21 04:27:51;;;;;;;;;22.20;21.00;;;;;15.88;100.00;100793.19;6236111;22;45424;-86
2022/06/21 04:30:31;;;;;;;;;19.25;19.25;;;;;15.77;100.00;100787.94;6245538;22;45349;-86
2022/06/21 04:33:02;;;;;;;;;19.25;18.25;;;;;15.80;100.00;100790.31;6242165;22;45174;-85
2022/06/21 04:35:34;;;;;;;;;18.00;18.00;;;;;15.76;100.00;100779.06;6237953;22;45938;-85
2022/06/21 04:38:20;;;;;;;;;23.75;21.75;;;;;15.77;100.00;100778.06;6213420;22;44705;-89
2022/06/21 04:40:56;;;;;;;;;15.00;15.00;;;;;15.70;100.00;100782.25;6213065;22;45414;-89
2022/06/21 04:43:42;;;;;;;;;17.25;16.00;;;;;15.72;100.00;100782.13;6218362;22;44795;-90
2022/06/21 04:46:20;;;;;;;;;23.50;21.25;;;;;15.70;100.00;100781.41;6222164;22;45095;-89
2022/06/21 04:48:54;;;;;;;;;24.00;22.25;;;;;15.73;100.00;100800.75;6227693;22;45182;-89
2022/06/21 04:51:33;;;;;;;;;20.25;16.50;;;;;15.68;100.00;100793.09;6228340;22;44757;-89
2022/06/21 04:54:04;;;;;;;;;23.00;22.75;;;;;15.70;100.00;100781.41;6230851;22;45321;-89
2022/06/21 04:56:35;;;;;;;;;31.75;20.25;;;;;15.73;100.00;100790.03;6227515;22;45147;-89
2022/06/21 04:59:05;;;;;;;;;18.75;17.75;;;;;15.70;100.00;100782.25;6235851;22;44883;-88
2022/06/21 05:01:32;;;;;;;;;19.50;17.50;;;;;15.61;100.00;100778.50;6217140;22;44696;-88
2022/06/21 05:04:23;;;;;;;;;22.50;18.75;;;;;15.78;100.00;100787.78;6217089;22;45159;-90
2022/06/21 05:06:51;;;;;;;;;19.50;18.25;;;;;15.79;100.00;100797.50;6217770;22;45406;-89
2022/06/21 05:09:21;;;;;;;;;20.75;20.00;;;;;15.88;100.00;100818.13;6224748;22;44701;-88
2022/06/21 05:11:57;;;;;;;;;21.50;19.00;;;;;15.87;100.00;100829.84;6232885;22;44786;-88
2022/06/21 05:14:27;;;;;;;;;25.00;19.25;;;;;16.01;100.00;100842.03;6231429;22;44841;-88
2022/06/21 05:16:53;;;;;;;;;20.75;19.50;;;;;16.06;100.00;100831.75;6226344;22;45037;-88
2022/06/21 05:19:27;;;;;;;;;25.25;23.00;;;;;16.09;100.00;100828.78;6218431;22;45192;-85
2022/06/21 05:22:12;;;;;;;;;21.50;15.50;;;;;16.13;100.00;100837.41;6215663;22;44801;-84
2022/06/21 05:24:38;;;;;;;;;20.25;20.25;;;;;16.12;100.00;100846.44;6222463;22;44756;-87
2022/06/21 05:27:38;;;;;;;;;18.50;18.50;;;;;16.18;100.00;100845.88;6223688;22;45105;-88
2022/06/21 05:30:21;;;;;;;;;15.00;15.00;;;;;16.33;100.00;100836.47;6219384;22;44789;-88
2022/06/21 05:32:52;;;;;;;;;15.75;15.75;;;;;16.43;100.00;100823.94;6243987;22;44690;-87
2022/06/21 05:35:22;;;;;;;;;17.00;17.00;;;;;16.53;100.00;100825.78;6217837;22;45509;-86
2022/06/21 05:37:52;;;;;;;;;25.75;22.25;;;;;16.54;100.00;100814.94;6223602;22;45296;-90
2022/06/21 05:40:42;;;;;;;;;16.25;16.25;;;;;16.60;100.00;100813.53;6218350;22;45208;-87
2022/06/21 05:43:15;;;;;;;;;19.50;18.75;;;;;16.74;100.00;100823.03;6219148;22;45244;-88
2022/06/21 05:45:43;;;;;;;;;19.25;16.75;;;;;16.80;100.00;100822.47;6221850;22;44673;-88
2022/06/21 05:48:16;;;;;;;;;25.25;18.75;;;;;16.87;100.00;100827.09;6219774;22;45364;-90
2022/06/21 05:50:42;;;;;;;;;18.00;16.75;;;;;17.05;100.00;100815.69;6219720;22;44623;-89
2022/06/21 05:56:29;;;;;;;;;20.25;16.00;;;;;17.38;100.00;100798.25;6224511;22;44706;-90
2022/06/21 05:59:03;;;;;;;;;17.25;16.75;;;;;17.46;100.00;100791.16;6218918;22;44918;-90
2022/06/21 06:01:47;;;;;;;;;16.60;15.60;;;;;17.61;100.00;100802.28;6216832;22;44648;-89
2022/06/21 06:04:21;;;;;;;;;20.00;17.00;;;;;17.67;100.00;100811.59;6219536;22;45262;-89
2022/06/21 06:06:47;;;;;;;;;19.00;16.75;;;;;17.73;100.00;100814.56;6219958;22;44688;-89
2022/06/21 06:09:19;;;;;;;;;14.50;14.50;;;;;17.60;100.00;100807.78;6217607;22;46965;-90
2022/06/21 06:12:03;;;;;;;;;17.00;16.60;;;;;17.86;100.00;100814.22;6222615;22;44572;-90
2022/06/21 06:14:44;;;;;;;;;17.00;14.80;;;;;18.21;100.00;100805.41;6228046;22;44570;-90
2022/06/21 06:17:52;;;;;;;;;15.00;15.00;;;;;18.51;100.00;100803.38;6256364;22;44845;-90
2022/06/21 06:20:41;;;;;;;;;15.25;14.50;;;;;18.75;100.00;100798.28;6254632;22;45265;-91
2022/06/21 06:23:16;;;;;;;;;15.80;14.20;;;;;18.95;100.00;100806.19;6254945;22;44757;-90
2022/06/21 06:25:43;;;;;;;;;20.20;17.20;;;;;19.15;100.00;100801.50;6241598;22;44622;-90
2022/06/21 06:28:34;;;;;;;;;14.80;14.80;;;;;19.44;100.00;100803.88;6263831;22;44908;-89
2022/06/21 06:31:38;;;;;;;;;15.20;12.60;;;;;19.52;100.00;100803.91;6241744;22;45187;-91
2022/06/21 06:34:11;;;;;;;;;12.00;12.00;;;;;19.37;100.00;100783.94;6208866;22;44733;-91
2022/06/21 06:36:48;;;;;;;;;17.60;16.20;;;;;19.50;100.00;100812.16;6196231;22;44664;-90
2022/06/21 06:39:23;;;;;;;;;16.50;15.00;;;;;19.65;100.00;100804.38;6195348;23;44746;-89
2022/06/21 06:41:49;;;;;;;;;14.60;12.00;;;;;19.64;100.00;100796.44;6172070;23;45275;-88
2022/06/21 06:44:21;;;;;;;;;15.50;15.50;;;;;19.65;100.00;100811.59;6165263;23;44584;-91
2022/06/21 06:46:51;;;;;;;;;17.00;14.80;;;;;19.87;100.00;100802.97;6194274;23;44777;-90
2022/06/21 06:49:35;;;;;;;;;14.50;13.00;;;;;20.17;100.00;100798.88;6167209;23;44828;-91
2022/06/21 06:52:35;;;;;;;;;10.60;9.00;;;;;20.22;100.00;100815.41;6170278;23;45054;-92
2022/06/21 06:55:44;;;;;;;;;16.00;15.00;;;;;20.33;100.00;100816.97;6200524;23;44782;-92
2022/06/21 06:58:23;;;;;;;;;15.00;13.40;;;;;20.71;100.00;100820.13;6183309;23;44724;-89
2022/06/21 07:01:16;;;;;;;;;14.20;12.00;;;;;20.85;100.00;100810.53;6193524;23;44861;-90
2022/06/21 07:03:47;;;;;;;;;13.40;11.60;;;;;20.39;100.00;100805.50;6191118;23;45034;-89
2022/06/21 07:06:23;;;;;;;;;12.60;12.60;;;;;20.26;100.00;100814.09;6170925;23;44618;-91
2022/06/21 07:08:56;;;;;;;;;15.20;15.20;;;;;20.55;100.00;100823.66;6197502;23;44575;-90
2022/06/21 07:11:34;;;;;;;;;11.80;11.80;;;;;20.63;100.00;100828.19;6221391;22;44753;-89
2022/06/21 07:14:42;;;;;;;;;13.40;13.40;;;;;20.52;100.00;100838.28;6251901;22;45208;-91
2022/06/21 07:17:21;;;;;;;;;13.00;13.00;;;;;20.61;100.00;100847.28;6231524;22;44685;-92
2022/06/21 07:23:21;;;;;;;;;14.20;14.20;;;;;20.85;100.00;100843.78;6215988;22;45089;-88
2022/06/21 07:28:47;;;;;;;;;11.40;11.00;;;;;21.27;100.00;100845.44;6243858;22;46068;-92
2022/06/21 07:31:23;;;;;;;;;15.00;13.00;;;;;21.21;100.00;100838.88;6334718;22;44601;-91
2022/06/21 07:34:02;;;;;;;;;10.40;10.40;;;;;21.20;100.00;100847.16;6333726;22;44716;-90
2022/06/21 07:36:38;;;;;;;;;17.40;15.00;;;;;21.43;100.00;100863.56;6326647;22;45327;-91
2022/06/21 07:39:32;;;;;;;;;14.40;14.40;;;;;21.71;100.00;100864.88;6295835;22;44800;-90
2022/06/21 07:42:40;;;;;;;;;16.40;14.60;;;;;21.93;100.00;100863.28;6279811;22;44682;-94
2022/06/21 08:36:16;;;;;;;;;16.00;14.40;;;;;23.99;100.00;100873.44;6188139;22;46499;-89
2022/06/21 08:39:04;;;;;;;;;13.00;13.00;;;;;23.82;100.00;100883.63;6302360;22;44813;-91
2022/06/21 08:42:10;;;;;;;;;16.60;15.00;;;;;23.84;100.00;100881.59;6264304;22;45252;-92
2022/06/21 08:47:48;;;;;;;;;15.80;15.80;;;;;24.08;100.00;100887.78;6300706;22;44879;-90
2022/06/21 08:50:51;;;;;;;;;17.40;16.80;;;;;24.20;100.00;100885.41;6276790;22;44805;-89
2022/06/21 08:53:39;;;;;;;;;17.80;17.80;;;;;24.30;100.00;100878.66;6302958;22;45288;-88
2022/06/21 08:56:30;;;;;;;;;22.80;18.60;;;;;24.24;100.00;100875.88;6298658;22;44675;-87
2022/06/21 09:02:20;;;;;;;;;15.40;15.40;;;;;24.53;100.00;100856.84;6277561;22;44881;-89
2022/06/21 09:05:16;;;;;;;;;19.20;13.80;;;;;24.72;100.00;100857.28;6270732;22;45171;-88
2022/06/21 09:07:50;;;;;;;;;12.20;11.20;;;;;24.97;100.00;100850.41;6254932;22;44661;-91
2022/06/21 09:10:51;;;;;;;;;16.80;14.80;;;;;25.28;100.00;100841.94;6253884;22;44645;-90
2022/06/21 09:13:25;;;;;;;;;15.80;15.80;;;;;25.27;100.00;100855.75;6224023;22;44587;-90
2022/06/21 09:15:56;;;;;;;;;17.20;16.60;;;;;25.24;100.00;100857.00;6229818;22;45186;-88
2022/06/21 09:19:18;;;;;;;;;16.60;16.60;;;;;25.50;100.00;100853.63;6215254;22;44710;-88
2022/06/21 09:21:57;;;;;;;;;16.40;15.80;;;;;25.68;100.00;100844.16;6214264;22;44881;-90
2022/06/21 09:24:41;;;;;;;;;17.40;13.60;;;;;25.80;100.00;100848.84;6214318;22;44826;-90
2022/06/21 09:27:39;;;;;;;;;12.20;11.40;;;;;25.89;100.00;100842.19;6230500;22;45009;-87
2022/06/21 09:30:11;;;;;;;;;14.40;8.40;;;;;25.68;100.00;100836.81;6137257;23;44880;-89
2022/06/21 09:32:52;;;;;;;;;15.40;14.20;;;;;25.54;100.00;100846.75;6138975;23;44674;-90
2022/06/21 09:38:21;;;;;;;;;23.20;17.40;;;;;25.44;100.00;100849.00;6288552;22;46208;-89
2022/06/21 09:41:01;;;;;;;;;19.40;15.60;;;;;25.42;100.00;100847.50;6286025;22;44685;-88
2022/06/21 09:43:44;;;;;;;;;14.40;14.40;;;;;25.46;100.00;100846.91;6283853;22;44808;-86
2022/06/21 09:49:24;;;;;;;;;14.40;14.40;;;;;24.95;100.00;100828.03;6300333;22;45087;-92
2022/06/21 09:52:30;;;;;;;;;20.60;19.00;;;;;24.57;100.00;100836.41;6274821;22;44689;-90
2022/06/21 09:55:47;;;;;;;;;20.20;20.20;;;;;24.61;100.00;100818.69;6274119;22;44661;-89
2022/06/21 09:58:18;;;;;;;;;25.50;21.50;;;;;24.50;100.00;100813.75;6302826;22;44674;-88
2022/06/21 10:01:07;;;;;;;;;19.00;19.00;;;;;24.10;100.00;100831.41;6250040;22;45251;-89
2022/06/21 10:06:35;;;;;;;;;21.50;20.75;;;;;23.74;100.00;100825.88;6299962;22;44824;-89
2022/06/21 10:09:11;;;;;;;;;22.75;22.75;;;;;23.70;100.00;100819.19;6270803;22;44810;-89
2022/06/21 10:14:40;;;;;;;;;30.75;27.00;;;;;23.08;100.00;100814.81;6313245;22;44815;-89
2022/06/21 10:18:01;;;;;;;;;23.75;22.75;;;;;23.06;100.00;100800.59;6301430;22;44620;-88
2022/06/21 10:20:48;;;;;;;;;19.00;19.00;;;;;23.17;100.00;100810.19;6248578;22;44980;-89
2022/06/21 10:23:32;;;;;;;;;25.00;23.50;;;;;23.32;100.00;100802.91;6294328;22;46770;-88
2022/06/21 10:42:46;;;;;;;;;14.20;12.60;;;;;23.72;100.00;100790.81;6275563;22;44789;-90
2022/06/21 10:45:57;;;;;;;;;22.80;22.80;;;;;23.75;100.00;100776.88;6302616;22;45054;-91
2022/06/21 10:49:27;;;;;;;;;19.40;18.40;;;;;23.94;100.00;100770.03;6282694;22;44775;-90
2022/06/21 10:52:33;;;;;;;;;13.60;13.60;;;;;23.87;100.00;100770.97;6273821;22;44565;-90
2022/06/21 11:01:35;;;;;;;;;22.00;20.00;;;;;24.36;100.00;100757.59;6290982;22;44887;-91
2022/06/21 11:04:45;;;;;;;;;20.80;20.80;;;;;24.40;100.00;100760.78;6264745;22;44810;-91
2022/06/21 11:09:52;;;;;;;;;21.25;18.50;;;;;24.50;100.00;100747.72;6226864;22;45863;-88
2022/06/21 11:15:18;;;;;;;;;16.20;14.80;;;;;24.85;100.00;100748.69;6290116;22;44649;-89
2022/06/21 11:18:02;;;;;;;;;16.50;15.25;;;;;25.04;100.00;100748.00;6258307;22;44821;-88
2022/06/21 11:20:29;;;;;;;;;23.20;22.80;;;;;25.25;100.00;100757.19;6257658;22;45155;-87
2022/06/21 11:23:03;;;;;;;;;21.00;21.00;;;;;25.21;100.00;100747.75;6288387;22;44642;-88
2022/06/21 11:25:54;;;;;;;;;17.40;15.80;;;;;25.25;100.00;100739.00;6287434;22;44576;-88
2022/06/21 11:28:39;;;;;;;;;20.25;20.25;;;;;25.53;100.00;100735.38;6261539;22;44885;-89
2022/06/21 11:31:15;;;;;;;;;29.25;27.50;;;;;25.69;100.00;100742.41;6290115;22;45373;-88
2022/06/21 11:34:18;;;;;;;;;25.00;23.40;;;;;25.76;100.00;100735.13;6259243;22;44730;-89
2022/06/21 11:36:50;;;;;;;;;22.40;19.40;;;;;25.84;100.00;100734.97;6300180;22;44692;-88
2022/06/21 11:39:36;;;;;;;;;17.50;14.50;;;;;25.99;100.00;100735.66;6273063;22;44861;-88
2022/06/21 11:42:04;;;;;;;;;25.80;21.60;;;;;26.14;100.00;100730.88;6268538;22;45225;-87
2022/06/21 11:44:57;;;;;;;;;15.80;15.80;;;;;26.26;100.00;100735.75;6294128;22;44809;-89
2022/06/21 11:47:34;;;;;;;;;16.20;14.80;;;;;26.19;100.00;100732.16;6264459;22;44764;-87
2022/06/21 11:50:13;;;;;;;;;14.80;13.80;;;;;26.34;100.00;100724.66;6257597;22;44782;-89
2022/06/21 11:53:03;;;;;;;;;21.80;20.00;;;;;26.28;100.00;100739.94;6259086;22;45317;-88
2022/06/21 11:55:40;;;;;;;;;22.00;16.20;;;;;26.38;100.00;100747.72;6284179;22;44724;-88
2022/06/21 11:58:45;;;;;;;;;13.40;12.40;;;;;26.53;100.00;100740.22;6257096;22;44760;-88
2022/06/21 12:01:21;;;;;;;;;14.40;14.40;;;;;26.74;100.00;100738.34;6284856;22;44784;-89
2022/06/21 12:08:24;;;;;;;;;16.00;14.00;;;;;27.23;100.00;100734.41;6268311;22;44697;-90
2022/06/21 12:11:18;;;;;;;;;12.80;12.80;;;;;27.06;100.00;100720.31;6250941;22;44736;-90
2022/06/21 12:14:39;;;;;;;;;18.20;14.80;;;;;27.20;100.00;100719.28;6123042;23;44809;-90
2022/06/21 12:17:52;;;;;;;;;13.60;13.60;;;;;27.34;100.00;100725.56;6030185;23;45051;-92
2022/06/21 12:30:45;;;;;;;;;16.00;11.00;;;;;28.06;100.00;100720.94;6265195;22;44850;-90
2022/06/21 12:33:14;;;;;;;;;16.80;14.80;;;;;28.11;100.00;100708.28;6270391;22;44696;-89
2022/06/21 12:35:59;;;;;;;;;20.00;18.50;;;;;28.42;100.00;100699.28;6269345;22;44646;-91
2022/06/21 12:39:00;;;;;;;;;19.80;18.40;;;;;28.35;100.00;100698.50;6268590;22;45066;-91
2022/06/21 12:41:55;;;;;;;;;14.00;13.60;;;;;28.53;100.00;100708.69;6268377;22;44651;-91
2022/06/21 12:44:30;;;;;;;;;17.40;16.60;;;;;28.48;100.00;100685.78;6293681;22;44785;-89
2022/06/21 12:48:04;;;;;;;;;16.60;16.60;;;;;29.19;100.00;100699.06;6270676;22;44867;-90
2022/06/21 12:53:36;;;;;;;;;19.20;13.60;;;;;29.14;100.00;100699.75;6297997;22;44779;-90
2022/06/21 12:56:14;;;;;;;;;17.20;17.20;;;;;29.19;99.87;100680.75;6307717;22;44859;-89
2022/06/21 12:59:03;;;;;;;;;32.00;30.50;;;;;29.55;97.43;100700.22;6282357;22;44903;-91
2022/06/21 13:02:00;;;;;;;;;17.20;17.00;;;;;29.34;96.17;100696.81;6326008;22;45104;-88
2022/06/21 13:05:08;;;;;;;;;25.20;20.00;;;;;29.07;98.87;100698.16;6206801;22;45867;-90
2022/06/21 13:07:35;;;;;;;;;15.60;15.60;;;;;28.75;97.50;100697.38;6237229;22;44540;-91
2022/06/21 13:16:18;;;;;;;;;17.20;15.40;;;;;29.50;95.91;100689.91;6231202;22;45948;-86
2022/06/21 13:19:25;;;;;;;;;12.40;12.40;;;;;29.88;99.18;100664.16;6292670;22;44694;-86
2022/06/21 13:21:51;;;;;;;;;14.20;12.80;;;;;30.25;95.04;100677.78;6240844;22;44847;-87
2022/06/21 13:24:16;;;;;;;;;19.25;16.00;;;;;30.57;88.40;100675.63;6256265;22;46405;-87
2022/06/21 13:27:06;;;;;;;;;11.75;10.00;;;;;30.63;87.63;100675.50;6280881;22;44626;-86
2022/06/21 13:29:44;;;;;;;;;7.60;7.60;;;;;30.90;98.00;100670.44;6263262;22;44677;-90
2022/06/21 13:32:22;;;;;;;;;17.80;14.40;;;;;30.96;93.69;100665.91;6292410;22;44832;-85
2022/06/21 13:34:53;;;;;;;;;18.20;15.60;;;;;30.89;87.68;100668.72;6253796;22;45255;-87
2022/06/21 13:37:26;;;;;;;;;22.20;17.60;;;;;30.88;88.71;100656.09;6284651;22;45087;-87
2022/06/21 13:40:00;;;;;;;;;14.60;14.00;;;;;31.23;90.80;100653.31;6254462;22;44786;-85
2022/06/21 13:42:49;;;;;;;;;13.80;12.40;;;;;30.43;91.85;100659.38;6256377;22;44752;-86
2022/06/21 13:45:29;;;;;;;;;14.20;12.40;;;;;29.65;93.51;100660.25;6289382;22;45310;-86
2022/06/21 13:48:09;;;;;;;;;27.20;23.80;;;;;29.14;98.05;100650.50;6294463;22;44701;-87
2022/06/21 13:51:00;;;;;;;;;15.80;15.80;;;;;28.49;99.76;100658.25;6297797;22;44602;-86
2022/06/21 13:53:47;;;;;;;;;14.80;13.80;;;;;28.39;100.00;100646.97;6261410;22;44799;-86
2022/06/21 13:56:46;;;;;;;;;25.60;19.60;;;;;29.11;98.22;100648.25;6284904;22;45192;-85
2022/06/21 13:59:28;;;;;;;;;13.20;13.00;;;;;29.79;95.66;100647.22;6286139;22;44627;-86
2022/06/21 14:02:07;;;;;;;;;17.40;15.40;;;;;30.35;90.73;100648.75;6258264;22;44720;-87
2022/06/21 14:04:41;;;;;;;;;16.40;16.40;;;;;30.22;91.45;100643.50;6260370;22;44780;-85
2022/06/21 14:07:18;;;;;;;;;14.80;13.40;;;;;30.40;91.72;100648.88;6285529;22;45215;-86